sensor_id;sensor_type;location;lat;lon;timestamp;temperature;humidity
82231;DHT22;71832;45.138;9.816;2023-08-06T00:01:35;20.30;71.50
82231;DHT22;71832;45.138;9.816;2023-08-06T00:04:03;20.30;71.60
82231;DHT22;71832;45.138;9.816;2023-08-06T00:06:31;20.40;71.70
82231;DHT22;71832;45.138;9.816;2023-08-06T00:08:59;20.50;71.50
82231;DHT22;71832;45.138;9.816;2023-08-06T00:11:27;20.50;70.90
82231;DHT22;71832;45.138;9.816;2023-08-06T00:13:54;20.50;70.70
82231;DHT22;71832;45.138;9.816;2023-08-06T00:16:22;20.30;72.70
82231;DHT22;71832;45.138;9.816;2023-08-06T00:18:50;20.20;73.70
82231;DHT22;71832;45.138;9.816;2023-08-06T00:21:18;20.20;73.60
82231;DHT22;71832;45.138;9.816;2023-08-06T00:23:47;20.30;72.90
82231;DHT22;71832;45.138;9.816;2023-08-06T00:26:15;20.30;73.20
82231;DHT22;71832;45.138;9.816;2023-08-06T00:28:43;20.30;72.70
82231;DHT22;71832;45.138;9.816;2023-08-06T00:31:11;20.30;73.00
82231;DHT22;71832;45.138;9.816;2023-08-06T00:33:39;20.30;72.80
82231;DHT22;71832;45.138;9.816;2023-08-06T00:36:08;20.30;72.60
82231;DHT22;71832;45.138;9.816;2023-08-06T00:38:36;20.30;72.90
82231;DHT22;71832;45.138;9.816;2023-08-06T00:41:04;20.30;72.70
82231;DHT22;71832;45.138;9.816;2023-08-06T00:43:32;20.30;73.00
82231;DHT22;71832;45.138;9.816;2023-08-06T00:46:00;20.30;73.50
82231;DHT22;71832;45.138;9.816;2023-08-06T00:48:29;20.30;73.80
82231;DHT22;71832;45.138;9.816;2023-08-06T00:50:57;20.30;73.50
82231;DHT22;71832;45.138;9.816;2023-08-06T00:53:25;20.30;73.30
82231;DHT22;71832;45.138;9.816;2023-08-06T00:55:54;20.20;73.30
82231;DHT22;71832;45.138;9.816;2023-08-06T00:58:22;20.20;73.50
82231;DHT22;71832;45.138;9.816;2023-08-06T01:00:50;20.30;73.40
82231;DHT22;71832;45.138;9.816;2023-08-06T01:03:18;20.30;74.10
82231;DHT22;71832;45.138;9.816;2023-08-06T01:05:47;20.30;74.20
82231;DHT22;71832;45.138;9.816;2023-08-06T01:11:44;20.40;73.60
82231;DHT22;71832;45.138;9.816;2023-08-06T01:16:50;20.30;74.90
82231;DHT22;71832;45.138;9.816;2023-08-06T01:19:19;20.30;75.30
82231;DHT22;71832;45.138;9.816;2023-08-06T01:21:47;20.20;75.50
82231;DHT22;71832;45.138;9.816;2023-08-06T01:24:15;20.20;75.50
82231;DHT22;71832;45.138;9.816;2023-08-06T01:26:50;20.10;75.80
82231;DHT22;71832;45.138;9.816;2023-08-06T01:29:30;20.10;76.20
82231;DHT22;71832;45.138;9.816;2023-08-06T01:31:59;20.00;76.50
82231;DHT22;71832;45.138;9.816;2023-08-06T01:34:31;20.00;77.00
82231;DHT22;71832;45.138;9.816;2023-08-06T01:37:01;20.00;77.30
82231;DHT22;71832;45.138;9.816;2023-08-06T01:39:32;20.00;77.40
82231;DHT22;71832;45.138;9.816;2023-08-06T01:42:00;20.00;77.40
82231;DHT22;71832;45.138;9.816;2023-08-06T01:44:28;20.00;77.20
82231;DHT22;71832;45.138;9.816;2023-08-06T01:46:56;20.00;77.20
82231;DHT22;71832;45.138;9.816;2023-08-06T01:49:24;19.90;77.50
82231;DHT22;71832;45.138;9.816;2023-08-06T01:51:53;20.00;77.30
82231;DHT22;71832;45.138;9.816;2023-08-06T01:54:20;20.00;76.80
82231;DHT22;71832;45.138;9.816;2023-08-06T01:56:49;20.10;76.60
82231;DHT22;71832;45.138;9.816;2023-08-06T01:59:17;20.20;76.10
82231;DHT22;71832;45.138;9.816;2023-08-06T02:01:45;20.20;76.40
82231;DHT22;71832;45.138;9.816;2023-08-06T02:04:13;20.20;76.20
82231;DHT22;71832;45.138;9.816;2023-08-06T02:06:41;20.20;76.50
82231;DHT22;71832;45.138;9.816;2023-08-06T02:09:09;20.10;76.90
82231;DHT22;71832;45.138;9.816;2023-08-06T02:11:37;20.10;77.30
82231;DHT22;71832;45.138;9.816;2023-08-06T02:14:05;20.00;77.50
82231;DHT22;71832;45.138;9.816;2023-08-06T02:16:33;20.00;77.60
82231;DHT22;71832;45.138;9.816;2023-08-06T02:19:01;20.00;77.50
82231;DHT22;71832;45.138;9.816;2023-08-06T02:21:30;20.00;77.50
82231;DHT22;71832;45.138;9.816;2023-08-06T02:23:58;19.90;77.20
82231;DHT22;71832;45.138;9.816;2023-08-06T02:26:25;19.90;77.40
82231;DHT22;71832;45.138;9.816;2023-08-06T02:28:54;19.80;77.40
82231;DHT22;71832;45.138;9.816;2023-08-06T02:31:22;19.90;77.20
82231;DHT22;71832;45.138;9.816;2023-08-06T02:33:50;19.80;77.40
82231;DHT22;71832;45.138;9.816;2023-08-06T02:36:17;19.70;77.10
82231;DHT22;71832;45.138;9.816;2023-08-06T02:38:45;19.70;77.50
82231;DHT22;71832;45.138;9.816;2023-08-06T02:41:14;19.70;77.60
82231;DHT22;71832;45.138;9.816;2023-08-06T02:43:43;19.70;76.80
82231;DHT22;71832;45.138;9.816;2023-08-06T02:46:10;19.60;77.30
82231;DHT22;71832;45.138;9.816;2023-08-06T02:48:38;19.60;77.80
82231;DHT22;71832;45.138;9.816;2023-08-06T02:51:06;19.50;78.10
82231;DHT22;71832;45.138;9.816;2023-08-06T02:53:34;19.50;78.40
82231;DHT22;71832;45.138;9.816;2023-08-06T02:56:01;19.50;78.90
82231;DHT22;71832;45.138;9.816;2023-08-06T02:58:30;19.40;79.00
82231;DHT22;71832;45.138;9.816;2023-08-06T03:01:07;19.40;79.00
82231;DHT22;71832;45.138;9.816;2023-08-06T03:03:36;19.30;78.90
82231;DHT22;71832;45.138;9.816;2023-08-06T03:06:04;19.40;79.10
82231;DHT22;71832;45.138;9.816;2023-08-06T03:08:33;19.50;79.00
82231;DHT22;71832;45.138;9.816;2023-08-06T03:11:00;19.50;79.00
82231;DHT22;71832;45.138;9.816;2023-08-06T03:13:28;19.50;79.10
82231;DHT22;71832;45.138;9.816;2023-08-06T03:15:57;19.50;79.20
82231;DHT22;71832;45.138;9.816;2023-08-06T03:18:28;19.50;78.90
82231;DHT22;71832;45.138;9.816;2023-08-06T03:20:55;19.50;79.20
82231;DHT22;71832;45.138;9.816;2023-08-06T03:23:24;19.50;79.20
82231;DHT22;71832;45.138;9.816;2023-08-06T03:25:52;19.50;79.00
82231;DHT22;71832;45.138;9.816;2023-08-06T03:28:20;19.50;78.70
82231;DHT22;71832;45.138;9.816;2023-08-06T03:30:57;19.50;78.60
82231;DHT22;71832;45.138;9.816;2023-08-06T03:33:25;19.50;78.30
82231;DHT22;71832;45.138;9.816;2023-08-06T03:35:53;19.40;78.10
82231;DHT22;71832;45.138;9.816;2023-08-06T03:38:21;19.30;78.10
82231;DHT22;71832;45.138;9.816;2023-08-06T03:40:50;19.20;78.70
82231;DHT22;71832;45.138;9.816;2023-08-06T03:43:18;19.10;79.30
82231;DHT22;71832;45.138;9.816;2023-08-06T03:45:46;19.00;79.30
82231;DHT22;71832;45.138;9.816;2023-08-06T03:48:13;19.00;79.50
82231;DHT22;71832;45.138;9.816;2023-08-06T03:50:40;19.00;79.70
82231;DHT22;71832;45.138;9.816;2023-08-06T03:53:08;18.90;79.80
82231;DHT22;71832;45.138;9.816;2023-08-06T03:55:35;18.90;79.60
82231;DHT22;71832;45.138;9.816;2023-08-06T03:58:03;18.90;79.80
82231;DHT22;71832;45.138;9.816;2023-08-06T04:00:32;19.00;79.50
82231;DHT22;71832;45.138;9.816;2023-08-06T04:03:00;18.90;79.50
82231;DHT22;71832;45.138;9.816;2023-08-06T04:05:30;18.80;79.80
82231;DHT22;71832;45.138;9.816;2023-08-06T04:07:58;18.80;80.30
82231;DHT22;71832;45.138;9.816;2023-08-06T04:10:27;18.80;80.50
82231;DHT22;71832;45.138;9.816;2023-08-06T04:12:55;18.80;80.70
82231;DHT22;71832;45.138;9.816;2023-08-06T04:15:23;18.70;80.80
82231;DHT22;71832;45.138;9.816;2023-08-06T04:17:50;18.70;81.20
82231;DHT22;71832;45.138;9.816;2023-08-06T04:20:18;18.80;80.80
82231;DHT22;71832;45.138;9.816;2023-08-06T04:22:46;18.80;80.50
82231;DHT22;71832;45.138;9.816;2023-08-06T04:25:14;18.80;80.50
82231;DHT22;71832;45.138;9.816;2023-08-06T04:27:42;18.80;80.30
82231;DHT22;71832;45.138;9.816;2023-08-06T04:30:10;18.80;80.20
82231;DHT22;71832;45.138;9.816;2023-08-06T04:32:40;18.80;80.20
82231;DHT22;71832;45.138;9.816;2023-08-06T04:35:08;18.80;80.10
82231;DHT22;71832;45.138;9.816;2023-08-06T04:37:38;18.80;80.10
82231;DHT22;71832;45.138;9.816;2023-08-06T04:40:05;18.70;80.00
82231;DHT22;71832;45.138;9.816;2023-08-06T04:42:34;18.80;80.10
82231;DHT22;71832;45.138;9.816;2023-08-06T04:45:02;18.80;79.90
82231;DHT22;71832;45.138;9.816;2023-08-06T04:47:29;18.90;79.50
82231;DHT22;71832;45.138;9.816;2023-08-06T04:49:57;18.90;79.10
82231;DHT22;71832;45.138;9.816;2023-08-06T04:52:24;18.90;78.40
82231;DHT22;71832;45.138;9.816;2023-08-06T04:54:55;18.90;78.40
82231;DHT22;71832;45.138;9.816;2023-08-06T04:57:23;18.90;78.60
82231;DHT22;71832;45.138;9.816;2023-08-06T04:59:50;19.00;78.70
82231;DHT22;71832;45.138;9.816;2023-08-06T05:02:18;19.10;78.40
82231;DHT22;71832;45.138;9.816;2023-08-06T05:04:46;19.10;78.10
82231;DHT22;71832;45.138;9.816;2023-08-06T05:07:14;19.20;77.90
82231;DHT22;71832;45.138;9.816;2023-08-06T05:09:42;19.30;77.50
82231;DHT22;71832;45.138;9.816;2023-08-06T05:12:09;19.30;77.80
82231;DHT22;71832;45.138;9.816;2023-08-06T05:14:37;19.30;78.00
82231;DHT22;71832;45.138;9.816;2023-08-06T05:17:04;19.40;78.00
82231;DHT22;71832;45.138;9.816;2023-08-06T05:19:32;19.40;78.20
82231;DHT22;71832;45.138;9.816;2023-08-06T05:21:59;19.40;78.60
82231;DHT22;71832;45.138;9.816;2023-08-06T05:24:28;19.40;79.10
82231;DHT22;71832;45.138;9.816;2023-08-06T05:26:56;19.50;79.20
82231;DHT22;71832;45.138;9.816;2023-08-06T05:29:24;19.50;79.00
82231;DHT22;71832;45.138;9.816;2023-08-06T05:31:52;19.60;79.00
82231;DHT22;71832;45.138;9.816;2023-08-06T05:34:19;19.70;78.90
82231;DHT22;71832;45.138;9.816;2023-08-06T05:36:47;19.70;78.20
82231;DHT22;71832;45.138;9.816;2023-08-06T05:39:14;19.70;78.30
82231;DHT22;71832;45.138;9.816;2023-08-06T05:41:42;19.70;77.30
82231;DHT22;71832;45.138;9.816;2023-08-06T05:44:10;19.80;77.50
82231;DHT22;71832;45.138;9.816;2023-08-06T05:46:37;19.90;77.00
82231;DHT22;71832;45.138;9.816;2023-08-06T05:49:05;19.90;76.50
82231;DHT22;71832;45.138;9.816;2023-08-06T05:51:33;20.00;76.20
82231;DHT22;71832;45.138;9.816;2023-08-06T05:54:01;20.10;76.20
82231;DHT22;71832;45.138;9.816;2023-08-06T05:56:30;20.10;76.00
82231;DHT22;71832;45.138;9.816;2023-08-06T05:58:58;20.20;75.20
82231;DHT22;71832;45.138;9.816;2023-08-06T06:01:26;20.30;74.10
82231;DHT22;71832;45.138;9.816;2023-08-06T06:03:55;20.30;74.40
82231;DHT22;71832;45.138;9.816;2023-08-06T06:06:23;20.30;72.90
82231;DHT22;71832;45.138;9.816;2023-08-06T06:08:51;20.30;73.40
82231;DHT22;71832;45.138;9.816;2023-08-06T06:11:19;20.30;74.30
82231;DHT22;71832;45.138;9.816;2023-08-06T06:13:52;20.30;72.60
82231;DHT22;71832;45.138;9.816;2023-08-06T06:16:21;20.30;72.60
82231;DHT22;71832;45.138;9.816;2023-08-06T06:18:50;20.30;72.70
82231;DHT22;71832;45.138;9.816;2023-08-06T06:21:19;20.30;71.70
82231;DHT22;71832;45.138;9.816;2023-08-06T06:23:47;20.40;73.00
82231;DHT22;71832;45.138;9.816;2023-08-06T06:26:15;20.40;72.30
82231;DHT22;71832;45.138;9.816;2023-08-06T06:28:44;20.40;72.60
82231;DHT22;71832;45.138;9.816;2023-08-06T06:31:11;20.30;73.00
82231;DHT22;71832;45.138;9.816;2023-08-06T06:33:39;20.30;72.70
82231;DHT22;71832;45.138;9.816;2023-08-06T06:36:07;20.50;72.80
82231;DHT22;71832;45.138;9.816;2023-08-06T06:38:37;20.50;71.30
82231;DHT22;71832;45.138;9.816;2023-08-06T06:41:05;20.60;72.50
82231;DHT22;71832;45.138;9.816;2023-08-06T06:43:33;20.70;72.10
82231;DHT22;71832;45.138;9.816;2023-08-06T06:46:01;20.70;72.60
82231;DHT22;71832;45.138;9.816;2023-08-06T06:48:31;20.80;71.80
82231;DHT22;71832;45.138;9.816;2023-08-06T06:51:00;20.80;71.80
82231;DHT22;71832;45.138;9.816;2023-08-06T06:53:28;20.80;71.40
82231;DHT22;71832;45.138;9.816;2023-08-06T06:56:07;20.90;71.00
82231;DHT22;71832;45.138;9.816;2023-08-06T06:58:36;20.90;71.40
82231;DHT22;71832;45.138;9.816;2023-08-06T07:01:06;21.00;71.20
82231;DHT22;71832;45.138;9.816;2023-08-06T07:03:34;21.10;70.20
82231;DHT22;71832;45.138;9.816;2023-08-06T07:06:03;21.10;70.60
82231;DHT22;71832;45.138;9.816;2023-08-06T07:08:32;21.20;70.50
82231;DHT22;71832;45.138;9.816;2023-08-06T07:11:03;21.30;70.10
82231;DHT22;71832;45.138;9.816;2023-08-06T07:13:33;21.50;69.60
82231;DHT22;71832;45.138;9.816;2023-08-06T07:16:02;21.50;69.20
82231;DHT22;71832;45.138;9.816;2023-08-06T07:18:30;21.70;68.00
82231;DHT22;71832;45.138;9.816;2023-08-06T07:20:59;21.70;68.50
82231;DHT22;71832;45.138;9.816;2023-08-06T07:23:28;21.90;68.00
82231;DHT22;71832;45.138;9.816;2023-08-06T07:25:57;21.90;67.50
82231;DHT22;71832;45.138;9.816;2023-08-06T07:28:25;22.00;67.70
82231;DHT22;71832;45.138;9.816;2023-08-06T07:30:52;22.10;66.60
82231;DHT22;71832;45.138;9.816;2023-08-06T07:33:21;22.10;66.40
82231;DHT22;71832;45.138;9.816;2023-08-06T07:35:49;22.20;66.00
82231;DHT22;71832;45.138;9.816;2023-08-06T07:38:17;22.30;65.40
82231;DHT22;71832;45.138;9.816;2023-08-06T07:40:45;22.50;65.00
82231;DHT22;71832;45.138;9.816;2023-08-06T07:43:13;22.50;64.70
82231;DHT22;71832;45.138;9.816;2023-08-06T07:45:41;22.60;63.50
82231;DHT22;71832;45.138;9.816;2023-08-06T07:48:08;22.70;63.10
82231;DHT22;71832;45.138;9.816;2023-08-06T07:50:35;22.70;62.80
82231;DHT22;71832;45.138;9.816;2023-08-06T07:53:04;22.80;61.70
82231;DHT22;71832;45.138;9.816;2023-08-06T07:55:32;22.90;62.00
82231;DHT22;71832;45.138;9.816;2023-08-06T07:58:00;23.00;62.10
82231;DHT22;71832;45.138;9.816;2023-08-06T08:00:28;23.10;59.90
82231;DHT22;71832;45.138;9.816;2023-08-06T08:02:56;23.10;60.50
82231;DHT22;71832;45.138;9.816;2023-08-06T08:05:24;23.20;59.30
82231;DHT22;71832;45.138;9.816;2023-08-06T08:07:53;23.30;59.80
82231;DHT22;71832;45.138;9.816;2023-08-06T08:10:21;23.40;58.70
82231;DHT22;71832;45.138;9.816;2023-08-06T08:12:48;23.50;58.70
82231;DHT22;71832;45.138;9.816;2023-08-06T08:15:16;23.50;57.50
82231;DHT22;71832;45.138;9.816;2023-08-06T08:17:44;23.60;58.30
82231;DHT22;71832;45.138;9.816;2023-08-06T08:20:16;23.70;56.60
82231;DHT22;71832;45.138;9.816;2023-08-06T08:22:44;23.80;54.70
82231;DHT22;71832;45.138;9.816;2023-08-06T08:25:13;23.80;54.90
82231;DHT22;71832;45.138;9.816;2023-08-06T08:27:42;23.90;55.70
82231;DHT22;71832;45.138;9.816;2023-08-06T08:30:11;24.00;55.90
82231;DHT22;71832;45.138;9.816;2023-08-06T08:32:39;24.00;54.60
82231;DHT22;71832;45.138;9.816;2023-08-06T08:35:08;24.10;53.60
82231;DHT22;71832;45.138;9.816;2023-08-06T08:37:39;24.20;51.80
82231;DHT22;71832;45.138;9.816;2023-08-06T08:40:09;24.20;53.90
82231;DHT22;71832;45.138;9.816;2023-08-06T08:42:37;24.20;53.90
82231;DHT22;71832;45.138;9.816;2023-08-06T08:45:16;24.40;53.80
82231;DHT22;71832;45.138;9.816;2023-08-06T08:47:48;24.40;54.40
82231;DHT22;71832;45.138;9.816;2023-08-06T08:50:17;24.50;52.90
82231;DHT22;71832;45.138;9.816;2023-08-06T08:52:47;24.60;53.00
82231;DHT22;71832;45.138;9.816;2023-08-06T08:55:15;24.70;52.50
82231;DHT22;71832;45.138;9.816;2023-08-06T08:57:43;24.70;53.00
82231;DHT22;71832;45.138;9.816;2023-08-06T09:00:11;24.80;51.90
82231;DHT22;71832;45.138;9.816;2023-08-06T09:02:43;24.90;50.50
82231;DHT22;71832;45.138;9.816;2023-08-06T09:05:13;25.00;51.40
82231;DHT22;71832;45.138;9.816;2023-08-06T09:07:45;25.00;51.60
82231;DHT22;71832;45.138;9.816;2023-08-06T09:10:16;25.20;49.80
82231;DHT22;71832;45.138;9.816;2023-08-06T09:12:46;25.20;49.40
82231;DHT22;71832;45.138;9.816;2023-08-06T09:15:15;25.30;51.50
82231;DHT22;71832;45.138;9.816;2023-08-06T09:17:43;25.40;51.90
82231;DHT22;71832;45.138;9.816;2023-08-06T09:20:13;25.40;50.70
82231;DHT22;71832;45.138;9.816;2023-08-06T09:22:42;25.60;47.90
82231;DHT22;71832;45.138;9.816;2023-08-06T09:25:12;25.60;48.00
82231;DHT22;71832;45.138;9.816;2023-08-06T09:27:47;25.70;49.10
82231;DHT22;71832;45.138;9.816;2023-08-06T09:32:58;25.80;44.30
82231;DHT22;71832;45.138;9.816;2023-08-06T09:35:28;25.80;43.00
82231;DHT22;71832;45.138;9.816;2023-08-06T09:38:06;26.00;46.60
82231;DHT22;71832;45.138;9.816;2023-08-06T09:40:35;26.10;45.00
82231;DHT22;71832;45.138;9.816;2023-08-06T09:43:03;26.20;44.40
82231;DHT22;71832;45.138;9.816;2023-08-06T09:45:35;26.30;40.80
82231;DHT22;71832;45.138;9.816;2023-08-06T09:48:05;26.30;40.60
82231;DHT22;71832;45.138;9.816;2023-08-06T09:50:34;26.30;42.20
82231;DHT22;71832;45.138;9.816;2023-08-06T09:53:05;26.40;41.80
82231;DHT22;71832;45.138;9.816;2023-08-06T09:55:34;26.30;40.30
82231;DHT22;71832;45.138;9.816;2023-08-06T09:58:02;26.40;41.30
82231;DHT22;71832;45.138;9.816;2023-08-06T10:00:31;26.40;40.40
82231;DHT22;71832;45.138;9.816;2023-08-06T10:03:01;26.40;41.90
82231;DHT22;71832;45.138;9.816;2023-08-06T10:05:32;26.40;39.30
82231;DHT22;71832;45.138;9.816;2023-08-06T10:08:02;26.50;39.70
82231;DHT22;71832;45.138;9.816;2023-08-06T10:10:32;26.50;41.00
82231;DHT22;71832;45.138;9.816;2023-08-06T10:13:01;26.60;42.60
82231;DHT22;71832;45.138;9.816;2023-08-06T10:15:31;26.60;41.60
82231;DHT22;71832;45.138;9.816;2023-08-06T10:18:00;26.60;37.80
82231;DHT22;71832;45.138;9.816;2023-08-06T10:20:34;26.70;37.40
82231;DHT22;71832;45.138;9.816;2023-08-06T10:23:04;26.70;38.20
82231;DHT22;71832;45.138;9.816;2023-08-06T10:25:34;26.70;38.90
82231;DHT22;71832;45.138;9.816;2023-08-06T10:28:09;26.70;38.70
82231;DHT22;71832;45.138;9.816;2023-08-06T10:30:48;26.70;44.40
82231;DHT22;71832;45.138;9.816;2023-08-06T10:33:20;26.80;39.00
82231;DHT22;71832;45.138;9.816;2023-08-06T10:35:50;26.80;41.10
82231;DHT22;71832;45.138;9.816;2023-08-06T10:38:21;26.90;40.40
82231;DHT22;71832;45.138;9.816;2023-08-06T10:43:40;27.00;42.10
82231;DHT22;71832;45.138;9.816;2023-08-06T10:46:11;27.10;41.20
82231;DHT22;71832;45.138;9.816;2023-08-06T10:48:41;27.10;38.80
82231;DHT22;71832;45.138;9.816;2023-08-06T10:51:11;27.10;41.30
82231;DHT22;71832;45.138;9.816;2023-08-06T10:53:43;27.00;39.60
82231;DHT22;71832;45.138;9.816;2023-08-06T10:56:15;27.00;43.00
82231;DHT22;71832;45.138;9.816;2023-08-06T10:58:44;27.00;42.10
82231;DHT22;71832;45.138;9.816;2023-08-06T11:01:12;27.10;42.50
82231;DHT22;71832;45.138;9.816;2023-08-06T11:03:41;27.10;42.00
82231;DHT22;71832;45.138;9.816;2023-08-06T11:06:10;27.20;43.40
82231;DHT22;71832;45.138;9.816;2023-08-06T11:08:42;27.20;42.90
82231;DHT22;71832;45.138;9.816;2023-08-06T11:11:15;27.20;38.80
82231;DHT22;71832;45.138;9.816;2023-08-06T11:13:44;27.30;41.00
82231;DHT22;71832;45.138;9.816;2023-08-06T11:16:18;27.20;38.40
82231;DHT22;71832;45.138;9.816;2023-08-06T11:18:46;27.30;40.50
82231;DHT22;71832;45.138;9.816;2023-08-06T11:21:15;27.30;39.80
82231;DHT22;71832;45.138;9.816;2023-08-06T11:23:46;27.30;37.60
82231;DHT22;71832;45.138;9.816;2023-08-06T11:26:18;27.40;36.80
82231;DHT22;71832;45.138;9.816;2023-08-06T11:28:46;27.40;36.10
82231;DHT22;71832;45.138;9.816;2023-08-06T11:31:23;27.40;39.40
82231;DHT22;71832;45.138;9.816;2023-08-06T11:33:53;27.40;36.10
82231;DHT22;71832;45.138;9.816;2023-08-06T11:36:40;27.40;36.40
82231;DHT22;71832;45.138;9.816;2023-08-06T11:39:09;27.50;33.10
82231;DHT22;71832;45.138;9.816;2023-08-06T11:41:37;27.50;34.10
82231;DHT22;71832;45.138;9.816;2023-08-06T11:44:06;27.50;36.20
82231;DHT22;71832;45.138;9.816;2023-08-06T11:46:57;27.40;36.80
82231;DHT22;71832;45.138;9.816;2023-08-06T11:49:39;27.40;32.30
82231;DHT22;71832;45.138;9.816;2023-08-06T11:52:27;27.50;32.80
82231;DHT22;71832;45.138;9.816;2023-08-06T11:55:06;27.50;34.80
82231;DHT22;71832;45.138;9.816;2023-08-06T11:57:38;27.60;34.70
82231;DHT22;71832;45.138;9.816;2023-08-06T12:00:09;27.60;34.60
82231;DHT22;71832;45.138;9.816;2023-08-06T12:02:39;27.70;35.50
82231;DHT22;71832;45.138;9.816;2023-08-06T12:05:15;27.70;34.20
82231;DHT22;71832;45.138;9.816;2023-08-06T12:07:47;27.90;33.40
82231;DHT22;71832;45.138;9.816;2023-08-06T12:10:16;27.90;32.90
82231;DHT22;71832;45.138;9.816;2023-08-06T12:12:43;28.00;32.50
82231;DHT22;71832;45.138;9.816;2023-08-06T12:15:11;28.00;32.40
82231;DHT22;71832;45.138;9.816;2023-08-06T12:17:39;27.90;32.20
82231;DHT22;71832;45.138;9.816;2023-08-06T12:20:07;27.90;33.80
82231;DHT22;71832;45.138;9.816;2023-08-06T12:22:36;27.90;32.60
82231;DHT22;71832;45.138;9.816;2023-08-06T12:25:07;27.90;32.30
82231;DHT22;71832;45.138;9.816;2023-08-06T12:27:36;27.90;33.80
82231;DHT22;71832;45.138;9.816;2023-08-06T12:30:05;28.00;32.70
82231;DHT22;71832;45.138;9.816;2023-08-06T12:32:34;28.10;30.80
82231;DHT22;71832;45.138;9.816;2023-08-06T12:35:02;28.10;30.10
82231;DHT22;71832;45.138;9.816;2023-08-06T12:37:31;28.10;31.20
82231;DHT22;71832;45.138;9.816;2023-08-06T12:40:00;28.10;32.40
82231;DHT22;71832;45.138;9.816;2023-08-06T12:42:28;28.10;32.30
82231;DHT22;71832;45.138;9.816;2023-08-06T12:44:55;28.20;32.20
82231;DHT22;71832;45.138;9.816;2023-08-06T12:47:23;28.30;33.30
82231;DHT22;71832;45.138;9.816;2023-08-06T12:49:50;28.30;32.10
82231;DHT22;71832;45.138;9.816;2023-08-06T12:52:18;28.30;33.30
82231;DHT22;71832;45.138;9.816;2023-08-06T12:54:46;28.30;31.50
82231;DHT22;71832;45.138;9.816;2023-08-06T12:57:14;28.40;32.90
82231;DHT22;71832;45.138;9.816;2023-08-06T12:59:41;28.50;31.20
82231;DHT22;71832;45.138;9.816;2023-08-06T13:02:09;28.50;30.00
82231;DHT22;71832;45.138;9.816;2023-08-06T13:04:38;28.50;30.10
82231;DHT22;71832;45.138;9.816;2023-08-06T13:07:06;28.50;31.20
82231;DHT22;71832;45.138;9.816;2023-08-06T13:09:34;28.60;29.00
82231;DHT22;71832;45.138;9.816;2023-08-06T13:12:02;28.60;29.50
82231;DHT22;71832;45.138;9.816;2023-08-06T13:14:32;28.60;28.20
82231;DHT22;71832;45.138;9.816;2023-08-06T13:17:00;28.70;30.90
82231;DHT22;71832;45.138;9.816;2023-08-06T13:19:28;28.70;27.80
82231;DHT22;71832;45.138;9.816;2023-08-06T13:22:02;28.70;27.80
82231;DHT22;71832;45.138;9.816;2023-08-06T13:24:32;28.60;28.90
82231;DHT22;71832;45.138;9.816;2023-08-06T13:27:00;28.70;28.40
82231;DHT22;71832;45.138;9.816;2023-08-06T13:29:27;28.70;28.00
82231;DHT22;71832;45.138;9.816;2023-08-06T13:31:55;28.70;28.30
82231;DHT22;71832;45.138;9.816;2023-08-06T13:34:23;28.70;28.30
82231;DHT22;71832;45.138;9.816;2023-08-06T13:36:51;28.70;29.20
82231;DHT22;71832;45.138;9.816;2023-08-06T13:39:19;28.70;28.90
82231;DHT22;71832;45.138;9.816;2023-08-06T13:41:47;28.80;31.70
82231;DHT22;71832;45.138;9.816;2023-08-06T13:44:15;28.90;27.90
82231;DHT22;71832;45.138;9.816;2023-08-06T13:46:43;28.90;29.50
82231;DHT22;71832;45.138;9.816;2023-08-06T13:49:11;28.90;27.30
82231;DHT22;71832;45.138;9.816;2023-08-06T13:51:39;28.90;27.60
82231;DHT22;71832;45.138;9.816;2023-08-06T13:54:07;28.90;27.00
82231;DHT22;71832;45.138;9.816;2023-08-06T13:56:36;28.90;28.50
82231;DHT22;71832;45.138;9.816;2023-08-06T13:59:05;29.00;30.70
82231;DHT22;71832;45.138;9.816;2023-08-06T14:01:33;29.00;27.00
82231;DHT22;71832;45.138;9.816;2023-08-06T14:04:01;29.10;29.30
82231;DHT22;71832;45.138;9.816;2023-08-06T14:06:30;29.00;27.70
82231;DHT22;71832;45.138;9.816;2023-08-06T14:08:58;29.00;27.00
82231;DHT22;71832;45.138;9.816;2023-08-06T14:11:27;29.00;27.20
82231;DHT22;71832;45.138;9.816;2023-08-06T14:13:54;29.00;28.00
82231;DHT22;71832;45.138;9.816;2023-08-06T14:16:22;29.10;26.40
82231;DHT22;71832;45.138;9.816;2023-08-06T14:18:50;29.10;27.20
82231;DHT22;71832;45.138;9.816;2023-08-06T14:21:19;29.10;26.90
82231;DHT22;71832;45.138;9.816;2023-08-06T14:23:47;29.10;26.40
82231;DHT22;71832;45.138;9.816;2023-08-06T14:26:15;29.20;28.20
82231;DHT22;71832;45.138;9.816;2023-08-06T14:28:43;29.20;27.40
82231;DHT22;71832;45.138;9.816;2023-08-06T14:31:12;29.30;28.10
82231;DHT22;71832;45.138;9.816;2023-08-06T14:33:41;29.30;26.70
82231;DHT22;71832;45.138;9.816;2023-08-06T14:36:09;29.30;27.20
82231;DHT22;71832;45.138;9.816;2023-08-06T14:38:37;29.30;27.00
82231;DHT22;71832;45.138;9.816;2023-08-06T14:41:05;29.20;26.10
82231;DHT22;71832;45.138;9.816;2023-08-06T14:43:33;29.20;26.40
82231;DHT22;71832;45.138;9.816;2023-08-06T14:46:02;29.20;23.20
82231;DHT22;71832;45.138;9.816;2023-08-06T14:48:30;29.20;26.40
82231;DHT22;71832;45.138;9.816;2023-08-06T14:50:58;29.20;24.40
82231;DHT22;71832;45.138;9.816;2023-08-06T14:53:31;29.10;26.40
82231;DHT22;71832;45.138;9.816;2023-08-06T14:55:58;29.10;26.00
82231;DHT22;71832;45.138;9.816;2023-08-06T14:58:26;29.10;25.30
82231;DHT22;71832;45.138;9.816;2023-08-06T15:00:54;29.10;25.80
82231;DHT22;71832;45.138;9.816;2023-08-06T15:03:21;29.20;25.30
82231;DHT22;71832;45.138;9.816;2023-08-06T15:05:49;29.20;24.40
82231;DHT22;71832;45.138;9.816;2023-08-06T15:08:18;29.20;26.90
82231;DHT22;71832;45.138;9.816;2023-08-06T15:10:54;29.10;27.50
82231;DHT22;71832;45.138;9.816;2023-08-06T15:13:23;29.10;27.30
82231;DHT22;71832;45.138;9.816;2023-08-06T15:15:51;29.20;27.20
82231;DHT22;71832;45.138;9.816;2023-08-06T15:18:19;29.20;27.80
82231;DHT22;71832;45.138;9.816;2023-08-06T15:20:47;29.20;28.30
82231;DHT22;71832;45.138;9.816;2023-08-06T15:23:15;29.30;26.80
82231;DHT22;71832;45.138;9.816;2023-08-06T15:25:43;29.30;24.80
82231;DHT22;71832;45.138;9.816;2023-08-06T15:28:11;29.30;26.80
82231;DHT22;71832;45.138;9.816;2023-08-06T15:30:39;29.30;26.80
82231;DHT22;71832;45.138;9.816;2023-08-06T15:33:11;29.30;26.90
82231;DHT22;71832;45.138;9.816;2023-08-06T15:35:40;29.40;27.50
82231;DHT22;71832;45.138;9.816;2023-08-06T15:38:07;29.50;25.10
82231;DHT22;71832;45.138;9.816;2023-08-06T15:40:35;29.50;25.50
82231;DHT22;71832;45.138;9.816;2023-08-06T15:43:03;29.50;25.20
82231;DHT22;71832;45.138;9.816;2023-08-06T15:45:32;29.60;25.50
82231;DHT22;71832;45.138;9.816;2023-08-06T15:48:00;29.80;25.40
82231;DHT22;71832;45.138;9.816;2023-08-06T15:50:28;30.00;25.60
82231;DHT22;71832;45.138;9.816;2023-08-06T15:52:56;30.10;25.50